sensor_id;sensor_type;location;lat;lon;timestamp;P1;durP1;ratioP1;P2;durP2;ratioP2
15843;SDS011;50807;52.436;13.346;2022-12-13T00:00:16;8.02;;;7.32;;
15843;SDS011;50807;52.436;13.346;2022-12-13T00:00:48;8.70;;;7.90;;
15843;SDS011;50807;52.436;13.346;2022-12-13T00:01:19;9.13;;;8.23;;
15843;SDS011;50807;52.436;13.346;2022-12-13T00:01:51;9.07;;;8.25;;
15843;SDS011;50807;52.436;13.346;2022-12-13T00:02:23;8.82;;;8.02;;
15843;SDS011;50807;52.436;13.346;2022-12-13T00:02:55;8.00;;;7.22;;
15843;SDS011;50807;52.436;13.346;2022-12-13T00:03:25;8.67;;;7.93;;
15843;SDS011;50807;52.436;13.346;2022-12-13T00:03:57;8.10;;;7.30;;
15843;SDS011;50807;52.436;13.346;2022-12-13T00:04:30;9.80;;;8.90;;
15843;SDS011;50807;52.436;13.346;2022-12-13T00:05:01;8.30;;;7.60;;
15843;SDS011;50807;52.436;13.346;2022-12-13T00:05:32;8.53;;;7.83;;
15843;SDS011;50807;52.436;13.346;2022-12-13T00:06:05;8.02;;;7.32;;
15843;SDS011;50807;52.436;13.346;2022-12-13T00:06:37;8.40;;;7.70;;
15843;SDS011;50807;52.436;13.346;2022-12-13T00:07:09;8.50;;;7.70;;
15843;SDS011;50807;52.436;13.346;2022-12-13T00:07:40;8.33;;;7.63;;
15843;SDS011;50807;52.436;13.346;2022-12-13T00:08:11;8.68;;;7.93;;
15843;SDS011;50807;52.436;13.346;2022-12-13T00:08:42;8.17;;;7.43;;
15843;SDS011;50807;52.436;13.346;2022-12-13T00:09:14;8.17;;;7.37;;
15843;SDS011;50807;52.436;13.346;2022-12-13T00:09:48;8.07;;;7.38;;
15843;SDS011;50807;52.436;13.346;2022-12-13T00:10:19;8.07;;;7.37;;
15843;SDS011;50807;52.436;13.346;2022-12-13T00:10:58;8.35;;;7.65;;
15843;SDS011;50807;52.436;13.346;2022-12-13T00:11:30;7.75;;;7.13;;
15843;SDS011;50807;52.436;13.346;2022-12-13T00:12:02;8.50;;;7.70;;
15843;SDS011;50807;52.436;13.346;2022-12-13T00:12:33;8.77;;;7.97;;
15843;SDS011;50807;52.436;13.346;2022-12-13T00:13:04;8.70;;;7.90;;
15843;SDS011;50807;52.436;13.346;2022-12-13T00:13:36;8.40;;;7.70;;
15843;SDS011;50807;52.436;13.346;2022-12-13T00:14:07;8.98;;;8.07;;
15843;SDS011;50807;52.436;13.346;2022-12-13T00:14:40;8.68;;;7.78;;
15843;SDS011;50807;52.436;13.346;2022-12-13T00:15:11;7.90;;;7.20;;
15843;SDS011;50807;52.436;13.346;2022-12-13T00:15:42;7.67;;;6.97;;
15843;SDS011;50807;52.436;13.346;2022-12-13T00:16:14;8.10;;;7.38;;
15843;SDS011;50807;52.436;13.346;2022-12-13T00:16:48;8.00;;;7.30;;
15843;SDS011;50807;52.436;13.346;2022-12-13T00:17:20;8.68;;;7.90;;
15843;SDS011;50807;52.436;13.346;2022-12-13T00:17:51;7.90;;;7.20;;
15843;SDS011;50807;52.436;13.346;2022-12-13T00:18:22;9.13;;;8.33;;
15843;SDS011;50807;52.436;13.346;2022-12-13T00:18:54;9.07;;;8.23;;
15843;SDS011;50807;52.436;13.346;2022-12-13T00:19:27;8.55;;;7.75;;
15843;SDS011;50807;52.436;13.346;2022-12-13T00:19:59;8.55;;;7.80;;
15843;SDS011;50807;52.436;13.346;2022-12-13T00:20:30;9.30;;;8.40;;
15843;SDS011;50807;52.436;13.346;2022-12-13T00:21:03;8.90;;;8.10;;
15843;SDS011;50807;52.436;13.346;2022-12-13T00:21:35;8.70;;;7.90;;
15843;SDS011;50807;52.436;13.346;2022-12-13T00:22:06;8.70;;;7.80;;
15843;SDS011;50807;52.436;13.346;2022-12-13T00:22:38;8.77;;;7.97;;
15843;SDS011;50807;52.436;13.346;2022-12-13T00:23:09;8.53;;;7.70;;
15843;SDS011;50807;52.436;13.346;2022-12-13T00:23:39;8.80;;;8.00;;
15843;SDS011;50807;52.436;13.346;2022-12-13T00:24:11;8.73;;;7.93;;
15843;SDS011;50807;52.436;13.346;2022-12-13T00:24:43;10.10;;;7.60;;
15843;SDS011;50807;52.436;13.346;2022-12-13T00:25:15;9.40;;;8.50;;
15843;SDS011;50807;52.436;13.346;2022-12-13T00:25:48;8.18;;;7.38;;
15843;SDS011;50807;52.436;13.346;2022-12-13T00:26:23;9.38;;;8.48;;
15843;SDS011;50807;52.436;13.346;2022-12-13T00:26:56;9.20;;;8.35;;
15843;SDS011;50807;52.436;13.346;2022-12-13T00:27:26;9.87;;;8.97;;
15843;SDS011;50807;52.436;13.346;2022-12-13T00:27:58;8.95;;;8.15;;
15843;SDS011;50807;52.436;13.346;2022-12-13T00:28:29;7.57;;;6.97;;
15843;SDS011;50807;52.436;13.346;2022-12-13T00:29:01;9.38;;;8.57;;
15843;SDS011;50807;52.436;13.346;2022-12-13T00:29:36;9.60;;;8.73;;
15843;SDS011;50807;52.436;13.346;2022-12-13T00:30:07;8.63;;;7.90;;
15843;SDS011;50807;52.436;13.346;2022-12-13T00:30:38;7.75;;;7.05;;
15843;SDS011;50807;52.436;13.346;2022-12-13T00:31:10;9.10;;;8.20;;
15843;SDS011;50807;52.436;13.346;2022-12-13T00:31:41;8.53;;;7.73;;
15843;SDS011;50807;52.436;13.346;2022-12-13T00:32:12;8.90;;;8.10;;
15843;SDS011;50807;52.436;13.346;2022-12-13T00:32:44;8.32;;;7.63;;
15843;SDS011;50807;52.436;13.346;2022-12-13T00:33:15;9.55;;;8.65;;
15843;SDS011;50807;52.436;13.346;2022-12-13T00:33:46;9.27;;;8.40;;
15843;SDS011;50807;52.436;13.346;2022-12-13T00:34:18;9.48;;;8.57;;
15843;SDS011;50807;52.436;13.346;2022-12-13T00:34:50;9.52;;;8.63;;
15843;SDS011;50807;52.436;13.346;2022-12-13T00:35:21;9.67;;;8.83;;
15843;SDS011;50807;52.436;13.346;2022-12-13T00:35:53;9.10;;;8.30;;
15843;SDS011;50807;52.436;13.346;2022-12-13T00:36:25;10.00;;;9.10;;
15843;SDS011;50807;52.436;13.346;2022-12-13T00:36:56;8.90;;;8.10;;
15843;SDS011;50807;52.436;13.346;2022-12-13T00:37:28;9.85;;;8.93;;
15843;SDS011;50807;52.436;13.346;2022-12-13T00:37:59;10.30;;;9.30;;
15843;SDS011;50807;52.436;13.346;2022-12-13T00:38:30;8.80;;;8.00;;
15843;SDS011;50807;52.436;13.346;2022-12-13T00:39:02;9.85;;;8.95;;
15843;SDS011;50807;52.436;13.346;2022-12-13T00:39:33;9.32;;;8.43;;
15843;SDS011;50807;52.436;13.346;2022-12-13T00:40:04;9.57;;;8.67;;
15843;SDS011;50807;52.436;13.346;2022-12-13T00:40:37;9.45;;;8.55;;
15843;SDS011;50807;52.436;13.346;2022-12-13T00:41:08;10.43;;;9.43;;
15843;SDS011;50807;52.436;13.346;2022-12-13T00:41:42;8.90;;;8.10;;
15843;SDS011;50807;52.436;13.346;2022-12-13T00:42:14;9.68;;;8.77;;
15843;SDS011;50807;52.436;13.346;2022-12-13T00:42:45;8.83;;;7.97;;
15843;SDS011;50807;52.436;13.346;2022-12-13T00:43:16;10.43;;;9.43;;
15843;SDS011;50807;52.436;13.346;2022-12-13T00:43:48;9.40;;;8.52;;
15843;SDS011;50807;52.436;13.346;2022-12-13T00:44:19;10.40;;;9.50;;
15843;SDS011;50807;52.436;13.346;2022-12-13T00:44:50;9.57;;;8.70;;
15843;SDS011;50807;52.436;13.346;2022-12-13T00:45:21;9.27;;;8.43;;
15843;SDS011;50807;52.436;13.346;2022-12-13T00:45:53;9.27;;;8.38;;
15843;SDS011;50807;52.436;13.346;2022-12-13T00:46:24;8.90;;;8.10;;
15843;SDS011;50807;52.436;13.346;2022-12-13T00:46:56;9.63;;;8.82;;
15843;SDS011;50807;52.436;13.346;2022-12-13T00:47:28;8.90;;;8.10;;
15843;SDS011;50807;52.436;13.346;2022-12-13T00:47:59;9.80;;;8.93;;
15843;SDS011;50807;52.436;13.346;2022-12-13T00:48:29;8.80;;;8.00;;
15843;SDS011;50807;52.436;13.346;2022-12-13T00:49:01;10.38;;;9.38;;
15843;SDS011;50807;52.436;13.346;2022-12-13T00:49:33;9.48;;;8.65;;
15843;SDS011;50807;52.436;13.346;2022-12-13T00:50:05;9.85;;;8.95;;
15843;SDS011;50807;52.436;13.346;2022-12-13T00:50:37;9.20;;;8.40;;
15843;SDS011;50807;52.436;13.346;2022-12-13T00:51:08;9.48;;;8.57;;
15843;SDS011;50807;52.436;13.346;2022-12-13T00:51:41;9.45;;;8.65;;
15843;SDS011;50807;52.436;13.346;2022-12-13T00:52:12;9.52;;;8.57;;
15843;SDS011;50807;52.436;13.346;2022-12-13T00:52:44;10.10;;;9.20;;
15843;SDS011;50807;52.436;13.346;2022-12-13T00:53:15;10.57;;;9.67;;
15843;SDS011;50807;52.436;13.346;2022-12-13T00:53:46;10.77;;;9.77;;
15843;SDS011;50807;52.436;13.346;2022-12-13T00:54:18;10.60;;;9.60;;
15843;SDS011;50807;52.436;13.346;2022-12-13T00:54:49;9.90;;;9.00;;
15843;SDS011;50807;52.436;13.346;2022-12-13T00:55:20;10.70;;;9.70;;
15843;SDS011;50807;52.436;13.346;2022-12-13T00:55:51;10.57;;;9.57;;
15843;SDS011;50807;52.436;13.346;2022-12-13T00:56:23;10.43;;;9.43;;
15843;SDS011;50807;52.436;13.346;2022-12-13T00:56:58;10.88;;;9.88;;
15843;SDS011;50807;52.436;13.346;2022-12-13T00:57:29;10.02;;;9.13;;
15843;SDS011;50807;52.436;13.346;2022-12-13T00:57:59;10.33;;;9.43;;
15843;SDS011;50807;52.436;13.346;2022-12-13T00:58:31;10.48;;;9.48;;
15843;SDS011;50807;52.436;13.346;2022-12-13T00:59:02;10.03;;;9.17;;
15843;SDS011;50807;52.436;13.346;2022-12-13T00:59:33;11.18;;;10.18;;
15843;SDS011;50807;52.436;13.346;2022-12-13T01:00:05;10.75;;;9.82;;
15843;SDS011;50807;52.436;13.346;2022-12-13T01:00:38;10.35;;;9.43;;
15843;SDS011;50807;52.436;13.346;2022-12-13T01:01:09;10.13;;;9.20;;
15843;SDS011;50807;52.436;13.346;2022-12-13T01:01:43;9.82;;;8.93;;
15843;SDS011;50807;52.436;13.346;2022-12-13T01:02:14;10.40;;;9.40;;
15843;SDS011;50807;52.436;13.346;2022-12-13T01:02:46;11.20;;;10.20;;
15843;SDS011;50807;52.436;13.346;2022-12-13T01:03:17;10.70;;;9.70;;
15843;SDS011;50807;52.436;13.346;2022-12-13T01:03:55;10.48;;;9.48;;
15843;SDS011;50807;52.436;13.346;2022-12-13T01:04:29;10.68;;;9.73;;
15843;SDS011;50807;52.436;13.346;2022-12-13T01:05:00;10.67;;;9.67;;
15843;SDS011;50807;52.436;13.346;2022-12-13T01:05:33;9.38;;;8.52;;
15843;SDS011;50807;52.436;13.346;2022-12-13T01:06:07;10.25;;;9.27;;
15843;SDS011;50807;52.436;13.346;2022-12-13T01:06:41;9.98;;;9.07;;
15843;SDS011;50807;52.436;13.346;2022-12-13T01:07:14;10.98;;;9.98;;
15843;SDS011;50807;52.436;13.346;2022-12-13T01:07:45;11.37;;;10.37;;
15843;SDS011;50807;52.436;13.346;2022-12-13T01:08:17;11.02;;;10.02;;
15843;SDS011;50807;52.436;13.346;2022-12-13T01:08:48;10.03;;;9.13;;
15843;SDS011;50807;52.436;13.346;2022-12-13T01:09:20;10.68;;;9.68;;
15843;SDS011;50807;52.436;13.346;2022-12-13T01:09:56;10.70;;;9.70;;
15843;SDS011;50807;52.436;13.346;2022-12-13T01:10:27;11.30;;;10.20;;
15843;SDS011;50807;52.436;13.346;2022-12-13T01:10:59;11.52;;;10.02;;
15843;SDS011;50807;52.436;13.346;2022-12-13T01:11:29;11.40;;;10.40;;
15843;SDS011;50807;52.436;13.346;2022-12-13T01:12:03;11.38;;;10.27;;
15843;SDS011;50807;52.436;13.346;2022-12-13T01:12:36;10.80;;;9.80;;
15843;SDS011;50807;52.436;13.346;2022-12-13T01:13:08;11.38;;;10.30;;
15843;SDS011;50807;52.436;13.346;2022-12-13T01:13:39;11.97;;;10.77;;
15843;SDS011;50807;52.436;13.346;2022-12-13T01:14:11;11.90;;;10.80;;
15843;SDS011;50807;52.436;13.346;2022-12-13T01:14:42;12.23;;;11.00;;
15843;SDS011;50807;52.436;13.346;2022-12-13T01:15:13;12.63;;;10.63;;
15843;SDS011;50807;52.436;13.346;2022-12-13T01:15:45;10.95;;;9.95;;
15843;SDS011;50807;52.436;13.346;2022-12-13T01:16:16;11.75;;;10.65;;
15843;SDS011;50807;52.436;13.346;2022-12-13T01:16:47;12.40;;;11.20;;
15843;SDS011;50807;52.436;13.346;2022-12-13T01:17:19;11.95;;;10.82;;
15843;SDS011;50807;52.436;13.346;2022-12-13T01:17:50;11.37;;;10.37;;
15843;SDS011;50807;52.436;13.346;2022-12-13T01:18:20;12.90;;;11.70;;
15843;SDS011;50807;52.436;13.346;2022-12-13T01:18:52;11.75;;;10.70;;
15843;SDS011;50807;52.436;13.346;2022-12-13T01:19:23;12.30;;;11.10;;
15843;SDS011;50807;52.436;13.346;2022-12-13T01:19:58;11.93;;;10.82;;
15843;SDS011;50807;52.436;13.346;2022-12-13T01:20:28;12.10;;;11.00;;
15843;SDS011;50807;52.436;13.346;2022-12-13T01:21:00;11.80;;;10.70;;
15843;SDS011;50807;52.436;13.346;2022-12-13T01:21:34;13.00;;;11.80;;
15843;SDS011;50807;52.436;13.346;2022-12-13T01:22:05;11.97;;;10.87;;
15843;SDS011;50807;52.436;13.346;2022-12-13T01:22:37;11.77;;;10.68;;
15843;SDS011;50807;52.436;13.346;2022-12-13T01:23:08;12.43;;;11.33;;
15843;SDS011;50807;52.436;13.346;2022-12-13T01:23:39;12.03;;;10.93;;
15843;SDS011;50807;52.436;13.346;2022-12-13T01:24:11;10.63;;;9.63;;
15843;SDS011;50807;52.436;13.346;2022-12-13T01:24:43;11.68;;;10.57;;
15843;SDS011;50807;52.436;13.346;2022-12-13T01:25:15;12.32;;;11.13;;
15843;SDS011;50807;52.436;13.346;2022-12-13T01:25:46;10.98;;;9.98;;
15843;SDS011;50807;52.436;13.346;2022-12-13T01:26:18;11.60;;;10.50;;
15843;SDS011;50807;52.436;13.346;2022-12-13T01:26:52;12.43;;;11.23;;
15843;SDS011;50807;52.436;13.346;2022-12-13T01:27:24;11.90;;;10.80;;
15843;SDS011;50807;52.436;13.346;2022-12-13T01:27:55;11.30;;;10.25;;
15843;SDS011;50807;52.436;13.346;2022-12-13T01:28:26;11.17;;;10.17;;
15843;SDS011;50807;52.436;13.346;2022-12-13T01:28:57;11.83;;;10.73;;
15843;SDS011;50807;52.436;13.346;2022-12-13T01:29:30;11.65;;;10.55;;
15843;SDS011;50807;52.436;13.346;2022-12-13T01:30:00;10.73;;;9.73;;
15843;SDS011;50807;52.436;13.346;2022-12-13T01:30:31;11.77;;;10.67;;
15843;SDS011;50807;52.436;13.346;2022-12-13T01:31:04;11.40;;;10.38;;
15843;SDS011;50807;52.436;13.346;2022-12-13T01:31:37;12.13;;;10.93;;
15843;SDS011;50807;52.436;13.346;2022-12-13T01:32:10;12.45;;;11.25;;
15843;SDS011;50807;52.436;13.346;2022-12-13T01:32:41;11.63;;;10.63;;
15843;SDS011;50807;52.436;13.346;2022-12-13T01:33:12;10.67;;;9.77;;
15843;SDS011;50807;52.436;13.346;2022-12-13T01:33:43;10.80;;;9.80;;
15843;SDS011;50807;52.436;13.346;2022-12-13T01:34:16;10.90;;;9.90;;
15843;SDS011;50807;52.436;13.346;2022-12-13T01:34:49;10.85;;;9.82;;
15843;SDS011;50807;52.436;13.346;2022-12-13T01:35:21;11.70;;;10.60;;
15843;SDS011;50807;52.436;13.346;2022-12-13T01:35:52;11.53;;;10.43;;
15843;SDS011;50807;52.436;13.346;2022-12-13T01:36:23;12.45;;;11.25;;
15843;SDS011;50807;52.436;13.346;2022-12-13T01:36:54;12.03;;;10.90;;
15843;SDS011;50807;52.436;13.346;2022-12-13T01:37:27;10.98;;;9.93;;
15843;SDS011;50807;52.436;13.346;2022-12-13T01:37:58;12.17;;;11.07;;
15843;SDS011;50807;52.436;13.346;2022-12-13T01:38:29;11.67;;;10.57;;
15843;SDS011;50807;52.436;13.346;2022-12-13T01:39:01;13.00;;;11.65;;
15843;SDS011;50807;52.436;13.346;2022-12-13T01:39:32;11.55;;;10.45;;
15843;SDS011;50807;52.436;13.346;2022-12-13T01:40:04;11.90;;;10.70;;
15843;SDS011;50807;52.436;13.346;2022-12-13T01:40:41;11.52;;;10.43;;
15843;SDS011;50807;52.436;13.346;2022-12-13T01:41:14;11.82;;;10.73;;
15843;SDS011;50807;52.436;13.346;2022-12-13T01:41:49;11.93;;;10.73;;
15843;SDS011;50807;52.436;13.346;2022-12-13T01:42:29;12.15;;;11.00;;
15843;SDS011;50807;52.436;13.346;2022-12-13T01:43:00;11.98;;;10.88;;
15843;SDS011;50807;52.436;13.346;2022-12-13T01:45:30;10.02;;;9.07;;
15843;SDS011;50807;52.436;13.346;2022-12-13T01:46:03;10.63;;;9.55;;
15843;SDS011;50807;52.436;13.346;2022-12-13T01:46:35;11.25;;;10.15;;
15843;SDS011;50807;52.436;13.346;2022-12-13T01:47:05;11.50;;;10.40;;
15843;SDS011;50807;52.436;13.346;2022-12-13T01:47:37;10.83;;;9.83;;
15843;SDS011;50807;52.436;13.346;2022-12-13T01:48:15;11.50;;;10.40;;
15843;SDS011;50807;52.436;13.346;2022-12-13T01:48:53;11.85;;;10.75;;
15843;SDS011;50807;52.436;13.346;2022-12-13T01:49:32;10.88;;;9.88;;
15843;SDS011;50807;52.436;13.346;2022-12-13T01:50:04;11.87;;;10.67;;
15843;SDS011;50807;52.436;13.346;2022-12-13T01:50:41;11.70;;;10.60;;
15843;SDS011;50807;52.436;13.346;2022-12-13T01:51:19;11.23;;;10.18;;
15843;SDS011;50807;52.436;13.346;2022-12-13T01:51:55;10.10;;;9.20;;
15843;SDS011;50807;52.436;13.346;2022-12-13T01:52:32;10.13;;;9.23;;
15843;SDS011;50807;52.436;13.346;2022-12-13T01:53:05;10.70;;;9.70;;
15843;SDS011;50807;52.436;13.346;2022-12-13T01:53:39;9.90;;;9.00;;
15843;SDS011;50807;52.436;13.346;2022-12-13T01:54:15;10.57;;;9.68;;
15843;SDS011;50807;52.436;13.346;2022-12-13T01:54:52;10.77;;;9.82;;
15843;SDS011;50807;52.436;13.346;2022-12-13T01:55:27;10.98;;;9.88;;
15843;SDS011;50807;52.436;13.346;2022-12-13T01:56:05;11.18;;;10.18;;
15843;SDS011;50807;52.436;13.346;2022-12-13T01:56:43;10.02;;;9.07;;
15843;SDS011;50807;52.436;13.346;2022-12-13T01:57:22;10.55;;;9.63;;
15843;SDS011;50807;52.436;13.346;2022-12-13T01:57:56;10.65;;;9.65;;
15843;SDS011;50807;52.436;13.346;2022-12-13T01:58:32;10.10;;;9.20;;
15843;SDS011;50807;52.436;13.346;2022-12-13T01:59:05;10.60;;;9.63;;
15843;SDS011;50807;52.436;13.346;2022-12-13T01:59:40;10.05;;;9.15;;
15843;SDS011;50807;52.436;13.346;2022-12-13T02:00:13;10.43;;;9.43;;
15843;SDS011;50807;52.436;13.346;2022-12-13T02:00:45;11.93;;;10.85;;
15843;SDS011;50807;52.436;13.346;2022-12-13T02:01:18;9.18;;;8.27;;
15843;SDS011;50807;52.436;13.346;2022-12-13T02:01:51;9.45;;;8.55;;
15843;SDS011;50807;52.436;13.346;2022-12-13T02:02:22;9.65;;;8.75;;
15843;SDS011;50807;52.436;13.346;2022-12-13T02:02:53;9.65;;;8.75;;
15843;SDS011;50807;52.436;13.346;2022-12-13T02:03:29;9.32;;;8.43;;
15843;SDS011;50807;52.436;13.346;2022-12-13T02:04:02;10.00;;;9.10;;
15843;SDS011;50807;52.436;13.346;2022-12-13T02:04:36;9.82;;;8.93;;
15843;SDS011;50807;52.436;13.346;2022-12-13T02:05:20;10.05;;;9.07;;
15843;SDS011;50807;52.436;13.346;2022-12-13T02:05:57;9.32;;;8.43;;
15843;SDS011;50807;52.436;13.346;2022-12-13T02:06:35;8.90;;;8.10;;
15843;SDS011;50807;52.436;13.346;2022-12-13T02:07:09;8.77;;;7.97;;
15843;SDS011;50807;52.436;13.346;2022-12-13T02:07:43;9.57;;;8.77;;
15843;SDS011;50807;52.436;13.346;2022-12-13T02:08:17;9.07;;;8.27;;
15843;SDS011;50807;52.436;13.346;2022-12-13T02:08:50;9.43;;;8.52;;
15843;SDS011;50807;52.436;13.346;2022-12-13T02:09:21;9.17;;;8.33;;
15843;SDS011;50807;52.436;13.346;2022-12-13T02:09:54;10.00;;;9.10;;
15843;SDS011;50807;52.436;13.346;2022-12-13T02:10:28;9.23;;;8.40;;
15843;SDS011;50807;52.436;13.346;2022-12-13T02:11:01;8.90;;;8.10;;
15843;SDS011;50807;52.436;13.346;2022-12-13T02:11:34;9.90;;;8.90;;
15843;SDS011;50807;52.436;13.346;2022-12-13T02:12:09;10.18;;;9.25;;
15843;SDS011;50807;52.436;13.346;2022-12-13T02:12:41;10.10;;;9.10;;
15843;SDS011;50807;52.436;13.346;2022-12-13T02:13:15;8.88;;;8.00;;
15843;SDS011;50807;52.436;13.346;2022-12-13T02:13:46;9.57;;;8.70;;
15843;SDS011;50807;52.436;13.346;2022-12-13T02:14:17;9.07;;;8.20;;
15843;SDS011;50807;52.436;13.346;2022-12-13T02:14:48;9.77;;;8.80;;
15843;SDS011;50807;52.436;13.346;2022-12-13T02:15:21;9.48;;;8.57;;
15843;SDS011;50807;52.436;13.346;2022-12-13T02:15:54;9.93;;;9.02;;
15843;SDS011;50807;52.436;13.346;2022-12-13T02:16:41;9.43;;;8.63;;
15843;SDS011;50807;52.436;13.346;2022-12-13T02:17:26;9.82;;;8.82;;
15843;SDS011;50807;52.436;13.346;2022-12-13T02:18:13;10.05;;;9.07;;
15843;SDS011;50807;52.436;13.346;2022-12-13T02:19:15;10.80;;;9.85;;
15843;SDS011;50807;52.436;13.346;2022-12-13T02:20:50;9.63;;;8.73;;
15843;SDS011;50807;52.436;13.346;2022-12-13T02:21:45;9.55;;;8.55;;
15843;SDS011;50807;52.436;13.346;2022-12-13T02:22:40;9.30;;;8.50;;
15843;SDS011;50807;52.436;13.346;2022-12-13T02:25:08;9.88;;;8.98;;
15843;SDS011;50807;52.436;13.346;2022-12-13T02:26:09;10.43;;;9.43;;
15843;SDS011;50807;52.436;13.346;2022-12-13T02:27:24;10.75;;;9.68;;
15843;SDS011;50807;52.436;13.346;2022-12-13T02:28:30;11.20;;;10.10;;
15843;SDS011;50807;52.436;13.346;2022-12-13T02:29:26;11.00;;;10.00;;
15843;SDS011;50807;52.436;13.346;2022-12-13T02:30:33;11.10;;;10.02;;
15843;SDS011;50807;52.436;13.346;2022-12-13T02:31:09;10.35;;;9.38;;
15843;SDS011;50807;52.436;13.346;2022-12-13T02:31:46;11.20;;;10.20;;
15843;SDS011;50807;52.436;13.346;2022-12-13T02:32:29;10.23;;;9.32;;
15843;SDS011;50807;52.436;13.346;2022-12-13T02:34:04;12.15;;;10.95;;
15843;SDS011;50807;52.436;13.346;2022-12-13T02:34:43;11.05;;;10.05;;
15843;SDS011;50807;52.436;13.346;2022-12-13T02:35:25;11.88;;;10.68;;
15843;SDS011;50807;52.436;13.346;2022-12-13T02:36:07;11.18;;;10.18;;
15843;SDS011;50807;52.436;13.346;2022-12-13T02:36:48;11.43;;;10.23;;
15843;SDS011;50807;52.436;13.346;2022-12-13T02:37:29;10.40;;;9.43;;
15843;SDS011;50807;52.436;13.346;2022-12-13T02:38:14;11.77;;;10.57;;
15843;SDS011;50807;52.436;13.346;2022-12-13T02:38:58;11.15;;;10.05;;
15843;SDS011;50807;52.436;13.346;2022-12-13T02:39:38;11.65;;;10.55;;
15843;SDS011;50807;52.436;13.346;2022-12-13T02:40:18;11.15;;;10.05;;
15843;SDS011;50807;52.436;13.346;2022-12-13T02:40:56;12.27;;;11.00;;
15843;SDS011;50807;52.436;13.346;2022-12-13T02:41:42;11.65;;;10.55;;
15843;SDS011;50807;52.436;13.346;2022-12-13T02:42:20;11.65;;;10.45;;
15843;SDS011;50807;52.436;13.346;2022-12-13T02:42:58;12.52;;;11.32;;
15843;SDS011;50807;52.436;13.346;2022-12-13T02:43:36;12.20;;;11.00;;
15843;SDS011;50807;52.436;13.346;2022-12-13T02:44:16;12.45;;;11.10;;
15843;SDS011;50807;52.436;13.346;2022-12-13T02:44:54;12.43;;;11.23;;
15843;SDS011;50807;52.436;13.346;2022-12-13T02:45:33;11.77;;;10.57;;
15843;SDS011;50807;52.436;13.346;2022-12-13T02:46:11;11.75;;;10.55;;
15843;SDS011;50807;52.436;13.346;2022-12-13T02:46:47;12.00;;;10.88;;
15843;SDS011;50807;52.436;13.346;2022-12-13T02:47:23;12.13;;;11.02;;
15843;SDS011;50807;52.436;13.346;2022-12-13T02:47:57;11.82;;;10.73;;
15843;SDS011;50807;52.436;13.346;2022-12-13T02:48:35;10.88;;;9.93;;
15843;SDS011;50807;52.436;13.346;2022-12-13T02:49:11;10.82;;;9.75;;
15843;SDS011;50807;52.436;13.346;2022-12-13T02:49:44;11.98;;;10.82;;
15843;SDS011;50807;52.436;13.346;2022-12-13T02:50:18;11.45;;;10.35;;
15843;SDS011;50807;52.436;13.346;2022-12-13T02:50:52;10.90;;;9.80;;
15843;SDS011;50807;52.436;13.346;2022-12-13T02:51:25;11.85;;;10.52;;
15843;SDS011;50807;52.436;13.346;2022-12-13T02:51:58;11.23;;;10.13;;
15843;SDS011;50807;52.436;13.346;2022-12-13T02:52:32;11.43;;;10.38;;
15843;SDS011;50807;52.436;13.346;2022-12-13T02:53:04;12.10;;;10.90;;
15843;SDS011;50807;52.436;13.346;2022-12-13T02:53:39;11.13;;;10.05;;
15843;SDS011;50807;52.436;13.346;2022-12-13T02:54:12;12.05;;;10.93;;
15843;SDS011;50807;52.436;13.346;2022-12-13T02:54:43;11.85;;;10.75;;
15843;SDS011;50807;52.436;13.346;2022-12-13T02:55:15;12.60;;;11.40;;
15843;SDS011;50807;52.436;13.346;2022-12-13T02:55:47;11.93;;;10.82;;
15843;SDS011;50807;52.436;13.346;2022-12-13T02:56:18;11.95;;;10.75;;
15843;SDS011;50807;52.436;13.346;2022-12-13T02:56:52;12.23;;;11.03;;
15843;SDS011;50807;52.436;13.346;2022-12-13T02:57:29;11.25;;;10.18;;
15843;SDS011;50807;52.436;13.346;2022-12-13T02:58:02;11.23;;;10.13;;
15843;SDS011;50807;52.436;13.346;2022-12-13T02:58:34;10.90;;;9.82;;
15843;SDS011;50807;52.436;13.346;2022-12-13T02:59:11;11.27;;;10.18;;
15843;SDS011;50807;52.436;13.346;2022-12-13T02:59:44;11.75;;;10.55;;
15843;SDS011;50807;52.436;13.346;2022-12-13T03:00:17;11.15;;;10.07;;
15843;SDS011;50807;52.436;13.346;2022-12-13T03:00:55;11.18;;;10.18;;
15843;SDS011;50807;52.436;13.346;2022-12-13T03:01:46;11.77;;;10.57;;
15843;SDS011;50807;52.436;13.346;2022-12-13T03:02:29;11.77;;;10.68;;
15843;SDS011;50807;52.436;13.346;2022-12-13T03:03:18;11.32;;;10.32;;
15843;SDS011;50807;52.436;13.346;2022-12-13T03:04:05;11.48;;;10.38;;
15843;SDS011;50807;52.436;13.346;2022-12-13T03:04:47;11.20;;;10.10;;
15843;SDS011;50807;52.436;13.346;2022-12-13T03:05:51;10.60;;;9.57;;
15843;SDS011;50807;52.436;13.346;2022-12-13T03:06:56;11.35;;;10.25;;
15843;SDS011;50807;52.436;13.346;2022-12-13T03:07:41;11.20;;;10.10;;
15843;SDS011;50807;52.436;13.346;2022-12-13T03:08:33;11.00;;;10.00;;
15843;SDS011;50807;52.436;13.346;2022-12-13T03:09:21;11.45;;;10.35;;
15843;SDS011;50807;52.436;13.346;2022-12-13T03:10:08;11.40;;;10.30;;
15843;SDS011;50807;52.436;13.346;2022-12-13T03:11:00;11.18;;;10.07;;
15843;SDS011;50807;52.436;13.346;2022-12-13T03:11:41;11.40;;;10.30;;
15843;SDS011;50807;52.436;13.346;2022-12-13T03:12:48;11.75;;;10.65;;
15843;SDS011;50807;52.436;13.346;2022-12-13T03:13:46;10.32;;;9.40;;
15843;SDS011;50807;52.436;13.346;2022-12-13T03:14:22;10.98;;;9.98;;
15843;SDS011;50807;52.436;13.346;2022-12-13T03:14:55;11.95;;;10.80;;
15843;SDS011;50807;52.436;13.346;2022-12-13T03:15:33;11.95;;;10.75;;
15843;SDS011;50807;52.436;13.346;2022-12-13T03:16:16;11.50;;;10.40;;
15843;SDS011;50807;52.436;13.346;2022-12-13T03:16:56;11.25;;;10.25;;
15843;SDS011;50807;52.436;13.346;2022-12-13T03:17:34;10.60;;;9.60;;
15843;SDS011;50807;52.436;13.346;2022-12-13T03:18:14;10.15;;;9.25;;
15843;SDS011;50807;52.436;13.346;2022-12-13T03:18:49;10.98;;;9.90;;
15843;SDS011;50807;52.436;13.346;2022-12-13T03:19:23;11.50;;;10.40;;
15843;SDS011;50807;52.436;13.346;2022-12-13T03:19:54;11.47;;;10.47;;
15843;SDS011;50807;52.436;13.346;2022-12-13T03:20:26;11.00;;;9.98;;
15843;SDS011;50807;52.436;13.346;2022-12-13T03:21:00;11.30;;;10.30;;
15843;SDS011;50807;52.436;13.346;2022-12-13T03:21:36;10.52;;;9.52;;
15843;SDS011;50807;52.436;13.346;2022-12-13T03:22:08;11.60;;;10.43;;
15843;SDS011;50807;52.436;13.346;2022-12-13T03:22:40;11.85;;;10.65;;
15843;SDS011;50807;52.436;13.346;2022-12-13T03:23:10;10.83;;;9.83;;
15843;SDS011;50807;52.436;13.346;2022-12-13T03:23:42;12.63;;;11.40;;
15843;SDS011;50807;52.436;13.346;2022-12-13T03:24:17;11.65;;;10.55;;
15843;SDS011;50807;52.436;13.346;2022-12-13T03:24:50;11.90;;;10.73;;
15843;SDS011;50807;52.436;13.346;2022-12-13T03:25:21;11.52;;;10.52;;
15843;SDS011;50807;52.436;13.346;2022-12-13T03:26:00;10.00;;;9.00;;
15843;SDS011;50807;52.436;13.346;2022-12-13T03:26:38;10.35;;;9.45;;
15843;SDS011;50807;52.436;13.346;2022-12-13T03:27:11;11.23;;;10.13;;
15843;SDS011;50807;52.436;13.346;2022-12-13T03:27:42;11.23;;;10.13;;
15843;SDS011;50807;52.436;13.346;2022-12-13T03:28:13;11.87;;;10.67;;
15843;SDS011;50807;52.436;13.346;2022-12-13T03:28:46;11.18;;;10.07;;
15843;SDS011;50807;52.436;13.346;2022-12-13T03:29:18;11.57;;;10.20;;